sensor_id;sensor_type;location;lat;lon;timestamp;P1;durP1;ratioP1;P2;durP2;ratioP2
48911;SDS011;34722;52.108;5.044;2022-10-10T00:02:12;15.80;;;10.45;;
48911;SDS011;34722;52.108;5.044;2022-10-10T00:04:37;15.13;;;9.20;;
48911;SDS011;34722;52.108;5.044;2022-10-10T00:07:03;18.63;;;9.60;;
48911;SDS011;34722;52.108;5.044;2022-10-10T00:09:29;13.70;;;8.55;;
48911;SDS011;34722;52.108;5.044;2022-10-10T00:11:55;19.52;;;8.80;;
48911;SDS011;34722;52.108;5.044;2022-10-10T00:14:21;19.95;;;9.52;;
48911;SDS011;34722;52.108;5.044;2022-10-10T00:16:47;17.05;;;11.13;;
48911;SDS011;34722;52.108;5.044;2022-10-10T00:19:12;13.10;;;8.18;;
48911;SDS011;34722;52.108;5.044;2022-10-10T00:21:38;17.00;;;10.23;;
48911;SDS011;34722;52.108;5.044;2022-10-10T00:24:04;15.23;;;9.40;;
48911;SDS011;34722;52.108;5.044;2022-10-10T00:26:30;13.10;;;9.63;;
48911;SDS011;34722;52.108;5.044;2022-10-10T00:28:55;16.90;;;9.88;;
48911;SDS011;34722;52.108;5.044;2022-10-10T00:31:24;14.93;;;9.55;;
48911;SDS011;34722;52.108;5.044;2022-10-10T00:33:50;15.73;;;9.27;;
48911;SDS011;34722;52.108;5.044;2022-10-10T00:36:16;18.92;;;9.85;;
48911;SDS011;34722;52.108;5.044;2022-10-10T00:38:44;14.05;;;8.68;;
48911;SDS011;34722;52.108;5.044;2022-10-10T00:41:10;13.52;;;9.50;;
48911;SDS011;34722;52.108;5.044;2022-10-10T00:43:36;16.27;;;9.75;;
48911;SDS011;34722;52.108;5.044;2022-10-10T00:46:02;13.60;;;9.95;;
48911;SDS011;34722;52.108;5.044;2022-10-10T00:48:28;17.15;;;9.05;;
48911;SDS011;34722;52.108;5.044;2022-10-10T00:51:05;16.05;;;8.60;;
48911;SDS011;34722;52.108;5.044;2022-10-10T00:53:38;13.80;;;9.65;;
48911;SDS011;34722;52.108;5.044;2022-10-10T00:56:07;15.88;;;9.45;;
48911;SDS011;34722;52.108;5.044;2022-10-10T00:58:34;13.18;;;9.02;;
48911;SDS011;34722;52.108;5.044;2022-10-10T01:01:03;12.10;;;8.73;;
48911;SDS011;34722;52.108;5.044;2022-10-10T01:03:30;12.40;;;8.80;;
48911;SDS011;34722;52.108;5.044;2022-10-10T01:05:56;18.00;;;10.35;;
48911;SDS011;34722;52.108;5.044;2022-10-10T01:08:23;13.73;;;9.32;;
48911;SDS011;34722;52.108;5.044;2022-10-10T01:16:18;13.05;;;8.95;;
48911;SDS011;34722;52.108;5.044;2022-10-10T01:19:05;13.13;;;8.40;;
48911;SDS011;34722;52.108;5.044;2022-10-10T02:03:31;12.40;;;8.95;;
48911;SDS011;34722;52.108;5.044;2022-10-10T02:06:19;15.98;;;9.13;;
48911;SDS011;34722;52.108;5.044;2022-10-10T02:08:52;16.20;;;9.77;;
48911;SDS011;34722;52.108;5.044;2022-10-10T02:11:21;18.58;;;9.27;;
48911;SDS011;34722;52.108;5.044;2022-10-10T02:13:53;16.08;;;9.48;;
48911;SDS011;34722;52.108;5.044;2022-10-10T02:16:25;16.13;;;9.57;;
48911;SDS011;34722;52.108;5.044;2022-10-10T02:18:54;18.25;;;9.88;;
48911;SDS011;34722;52.108;5.044;2022-10-10T02:21:23;16.83;;;8.90;;
48911;SDS011;34722;52.108;5.044;2022-10-10T02:23:52;12.38;;;9.60;;
48911;SDS011;34722;52.108;5.044;2022-10-10T02:26:20;16.20;;;10.13;;
48911;SDS011;34722;52.108;5.044;2022-10-10T02:28:50;16.95;;;9.60;;
48911;SDS011;34722;52.108;5.044;2022-10-10T02:34:29;17.77;;;9.90;;
48911;SDS011;34722;52.108;5.044;2022-10-10T02:37:00;17.38;;;9.10;;
48911;SDS011;34722;52.108;5.044;2022-10-10T02:39:30;13.55;;;8.70;;
48911;SDS011;34722;52.108;5.044;2022-10-10T02:42:03;16.38;;;9.85;;
48911;SDS011;34722;52.108;5.044;2022-10-10T02:44:31;16.40;;;9.70;;
48911;SDS011;34722;52.108;5.044;2022-10-10T02:46:57;21.73;;;9.80;;
48911;SDS011;34722;52.108;5.044;2022-10-10T02:49:27;13.30;;;8.85;;
48911;SDS011;34722;52.108;5.044;2022-10-10T02:51:55;15.18;;;9.57;;
48911;SDS011;34722;52.108;5.044;2022-10-10T02:54:21;14.32;;;8.95;;
48911;SDS011;34722;52.108;5.044;2022-10-10T02:56:47;17.60;;;8.48;;
48911;SDS011;34722;52.108;5.044;2022-10-10T02:59:16;15.02;;;8.55;;
48911;SDS011;34722;52.108;5.044;2022-10-10T03:01:42;12.82;;;8.27;;
48911;SDS011;34722;52.108;5.044;2022-10-10T03:04:08;14.18;;;8.82;;
48911;SDS011;34722;52.108;5.044;2022-10-10T03:09:32;19.95;;;8.63;;
48911;SDS011;34722;52.108;5.044;2022-10-10T03:11:58;18.60;;;9.35;;
48911;SDS011;34722;52.108;5.044;2022-10-10T03:14:27;12.50;;;8.45;;
48911;SDS011;34722;52.108;5.044;2022-10-10T03:16:53;17.23;;;8.93;;
48911;SDS011;34722;52.108;5.044;2022-10-10T03:19:19;12.15;;;8.32;;
48911;SDS011;34722;52.108;5.044;2022-10-10T03:21:44;15.55;;;9.35;;
48911;SDS011;34722;52.108;5.044;2022-10-10T03:24:10;15.50;;;9.63;;
48911;SDS011;34722;52.108;5.044;2022-10-10T03:26:36;16.10;;;9.05;;
48911;SDS011;34722;52.108;5.044;2022-10-10T03:29:02;15.60;;;8.27;;
48911;SDS011;34722;52.108;5.044;2022-10-10T03:31:29;14.40;;;9.80;;
48911;SDS011;34722;52.108;5.044;2022-10-10T03:33:58;17.00;;;9.18;;
48911;SDS011;34722;52.108;5.044;2022-10-10T03:36:26;15.07;;;8.70;;
48911;SDS011;34722;52.108;5.044;2022-10-10T03:38:52;14.05;;;8.88;;
48911;SDS011;34722;52.108;5.044;2022-10-10T03:41:18;17.50;;;9.43;;
48911;SDS011;34722;52.108;5.044;2022-10-10T03:43:44;17.42;;;10.18;;
48911;SDS011;34722;52.108;5.044;2022-10-10T03:46:09;15.80;;;9.98;;
48911;SDS011;34722;52.108;5.044;2022-10-10T03:48:35;17.88;;;9.85;;
48911;SDS011;34722;52.108;5.044;2022-10-10T03:51:01;21.45;;;11.27;;
48911;SDS011;34722;52.108;5.044;2022-10-10T03:53:26;17.90;;;10.52;;
48911;SDS011;34722;52.108;5.044;2022-10-10T03:55:52;13.85;;;9.10;;
48911;SDS011;34722;52.108;5.044;2022-10-10T03:58:19;15.32;;;9.57;;
48911;SDS011;34722;52.108;5.044;2022-10-10T04:00:51;15.48;;;10.05;;
48911;SDS011;34722;52.108;5.044;2022-10-10T04:03:24;14.02;;;10.45;;
48911;SDS011;34722;52.108;5.044;2022-10-10T04:05:50;17.60;;;9.48;;
48911;SDS011;34722;52.108;5.044;2022-10-10T04:08:17;14.98;;;9.20;;
48911;SDS011;34722;52.108;5.044;2022-10-10T04:10:46;17.55;;;10.35;;
48911;SDS011;34722;52.108;5.044;2022-10-10T04:13:12;16.17;;;10.10;;
48911;SDS011;34722;52.108;5.044;2022-10-10T04:15:41;16.67;;;10.68;;
48911;SDS011;34722;52.108;5.044;2022-10-10T04:18:06;23.48;;;11.15;;
48911;SDS011;34722;52.108;5.044;2022-10-10T04:20:32;17.88;;;11.13;;
48911;SDS011;34722;52.108;5.044;2022-10-10T04:22:58;15.48;;;10.35;;
48911;SDS011;34722;52.108;5.044;2022-10-10T04:25:23;19.30;;;11.18;;
48911;SDS011;34722;52.108;5.044;2022-10-10T04:27:49;21.63;;;9.93;;
48911;SDS011;34722;52.108;5.044;2022-10-10T05:19:23;18.50;;;11.50;;
48911;SDS011;34722;52.108;5.044;2022-10-10T05:21:49;26.75;;;13.25;;
48911;SDS011;34722;52.108;5.044;2022-10-10T05:24:15;18.30;;;11.23;;
48911;SDS011;34722;52.108;5.044;2022-10-10T05:26:41;20.92;;;11.63;;
48911;SDS011;34722;52.108;5.044;2022-10-10T05:29:09;23.20;;;11.73;;
48911;SDS011;34722;52.108;5.044;2022-10-10T05:31:35;30.02;;;13.20;;
48911;SDS011;34722;52.108;5.044;2022-10-10T05:34:19;20.58;;;11.60;;
48911;SDS011;34722;52.108;5.044;2022-10-10T05:36:51;21.42;;;12.13;;
48911;SDS011;34722;52.108;5.044;2022-10-10T05:39:19;25.45;;;12.98;;
48911;SDS011;34722;52.108;5.044;2022-10-10T05:41:45;25.65;;;13.43;;
48911;SDS011;34722;52.108;5.044;2022-10-10T05:44:11;20.00;;;12.52;;
48911;SDS011;34722;52.108;5.044;2022-10-10T05:46:37;22.52;;;14.05;;
48911;SDS011;34722;52.108;5.044;2022-10-10T05:49:03;22.38;;;12.15;;
48911;SDS011;34722;52.108;5.044;2022-10-10T05:51:31;22.48;;;12.20;;
48911;SDS011;34722;52.108;5.044;2022-10-10T05:53:57;20.48;;;13.13;;
48911;SDS011;34722;52.108;5.044;2022-10-10T05:56:42;21.80;;;12.98;;
48911;SDS011;34722;52.108;5.044;2022-10-10T05:59:10;23.10;;;12.85;;
48911;SDS011;34722;52.108;5.044;2022-10-10T06:01:36;19.98;;;12.57;;
48911;SDS011;34722;52.108;5.044;2022-10-10T06:04:02;23.20;;;12.90;;
48911;SDS011;34722;52.108;5.044;2022-10-10T06:06:34;26.15;;;13.50;;
48911;SDS011;34722;52.108;5.044;2022-10-10T06:09:04;22.85;;;12.73;;
48911;SDS011;34722;52.108;5.044;2022-10-10T06:11:32;22.20;;;12.25;;
48911;SDS011;34722;52.108;5.044;2022-10-10T06:13:59;21.58;;;13.20;;
48911;SDS011;34722;52.108;5.044;2022-10-10T06:16:25;23.80;;;11.88;;
48911;SDS011;34722;52.108;5.044;2022-10-10T06:18:52;24.70;;;13.50;;
48911;SDS011;34722;52.108;5.044;2022-10-10T06:21:20;19.98;;;12.38;;
48911;SDS011;34722;52.108;5.044;2022-10-10T06:23:47;24.25;;;13.10;;
48911;SDS011;34722;52.108;5.044;2022-10-10T06:29:12;21.58;;;10.70;;
48911;SDS011;34722;52.108;5.044;2022-10-10T06:31:41;20.30;;;12.25;;
48911;SDS011;34722;52.108;5.044;2022-10-10T06:34:07;25.80;;;11.90;;
48911;SDS011;34722;52.108;5.044;2022-10-10T06:36:33;21.20;;;12.15;;
48911;SDS011;34722;52.108;5.044;2022-10-10T06:39:02;19.55;;;12.25;;
48911;SDS011;34722;52.108;5.044;2022-10-10T06:41:28;20.15;;;12.07;;
48911;SDS011;34722;52.108;5.044;2022-10-10T06:43:55;23.75;;;13.55;;
48911;SDS011;34722;52.108;5.044;2022-10-10T06:46:21;19.02;;;12.27;;
48911;SDS011;34722;52.108;5.044;2022-10-10T07:24:44;14.25;;;7.93;;
48911;SDS011;34722;52.108;5.044;2022-10-10T07:27:10;15.70;;;7.25;;
48911;SDS011;34722;52.108;5.044;2022-10-10T07:29:35;11.40;;;7.78;;
48911;SDS011;34722;52.108;5.044;2022-10-10T07:32:01;13.15;;;8.38;;
48911;SDS011;34722;52.108;5.044;2022-10-10T07:34:27;12.70;;;7.15;;
48911;SDS011;34722;52.108;5.044;2022-10-10T07:36:53;10.75;;;7.55;;
48911;SDS011;34722;52.108;5.044;2022-10-10T07:39:19;16.67;;;8.00;;
48911;SDS011;34722;52.108;5.044;2022-10-10T07:41:48;12.10;;;8.60;;
48911;SDS011;34722;52.108;5.044;2022-10-10T07:44:16;14.15;;;7.28;;
48911;SDS011;34722;52.108;5.044;2022-10-10T07:46:42;12.32;;;7.90;;
48911;SDS011;34722;52.108;5.044;2022-10-10T07:49:08;11.30;;;7.97;;
48911;SDS011;34722;52.108;5.044;2022-10-10T07:51:34;10.93;;;6.88;;
48911;SDS011;34722;52.108;5.044;2022-10-10T07:54:00;10.30;;;7.65;;
48911;SDS011;34722;52.108;5.044;2022-10-10T07:56:29;11.40;;;7.70;;
48911;SDS011;34722;52.108;5.044;2022-10-10T07:58:58;14.38;;;8.18;;
48911;SDS011;34722;52.108;5.044;2022-10-10T08:01:24;14.57;;;7.95;;
48911;SDS011;34722;52.108;5.044;2022-10-10T08:03:50;15.10;;;8.15;;
48911;SDS011;34722;52.108;5.044;2022-10-10T08:06:16;17.73;;;8.52;;
48911;SDS011;34722;52.108;5.044;2022-10-10T08:08:43;12.23;;;7.60;;
48911;SDS011;34722;52.108;5.044;2022-10-10T08:11:11;10.85;;;7.38;;
48911;SDS011;34722;52.108;5.044;2022-10-10T08:13:37;11.07;;;7.10;;
48911;SDS011;34722;52.108;5.044;2022-10-10T08:16:06;10.70;;;7.38;;
48911;SDS011;34722;52.108;5.044;2022-10-10T08:18:32;7.97;;;6.90;;
48911;SDS011;34722;52.108;5.044;2022-10-10T08:20:58;16.58;;;7.00;;
48911;SDS011;34722;52.108;5.044;2022-10-10T08:23:31;14.77;;;7.80;;
48911;SDS011;34722;52.108;5.044;2022-10-10T08:25:58;11.52;;;7.68;;
48911;SDS011;34722;52.108;5.044;2022-10-10T08:28:25;10.35;;;7.95;;
48911;SDS011;34722;52.108;5.044;2022-10-10T08:30:57;14.18;;;8.88;;
48911;SDS011;34722;52.108;5.044;2022-10-10T08:33:29;15.27;;;9.23;;
48911;SDS011;34722;52.108;5.044;2022-10-10T08:35:57;16.00;;;8.95;;
48911;SDS011;34722;52.108;5.044;2022-10-10T08:38:25;9.93;;;7.95;;
48911;SDS011;34722;52.108;5.044;2022-10-10T08:40:52;13.68;;;9.15;;
48911;SDS011;34722;52.108;5.044;2022-10-10T08:43:32;18.55;;;9.88;;
48911;SDS011;34722;52.108;5.044;2022-10-10T08:46:58;20.67;;;8.82;;
48911;SDS011;34722;52.108;5.044;2022-10-10T08:49:34;16.13;;;10.00;;
48911;SDS011;34722;52.108;5.044;2022-10-10T08:52:37;16.70;;;10.38;;
48911;SDS011;34722;52.108;5.044;2022-10-10T08:55:31;17.20;;;8.75;;
48911;SDS011;34722;52.108;5.044;2022-10-10T08:58:04;15.68;;;9.98;;
48911;SDS011;34722;52.108;5.044;2022-10-10T09:00:48;12.65;;;9.52;;
48911;SDS011;34722;52.108;5.044;2022-10-10T09:03:40;18.52;;;9.45;;
48911;SDS011;34722;52.108;5.044;2022-10-10T09:26:14;20.50;;;11.32;;
48911;SDS011;34722;52.108;5.044;2022-10-10T09:31:36;16.80;;;10.32;;
48911;SDS011;34722;52.108;5.044;2022-10-10T09:34:18;17.48;;;9.90;;
48911;SDS011;34722;52.108;5.044;2022-10-10T09:36:53;19.10;;;11.48;;
48911;SDS011;34722;52.108;5.044;2022-10-10T09:42:11;16.42;;;9.43;;
48911;SDS011;34722;52.108;5.044;2022-10-10T09:44:41;18.77;;;9.70;;
48911;SDS011;34722;52.108;5.044;2022-10-10T09:47:11;15.07;;;9.43;;
48911;SDS011;34722;52.108;5.044;2022-10-10T09:49:39;18.23;;;10.70;;
48911;SDS011;34722;52.108;5.044;2022-10-10T09:52:26;16.50;;;9.13;;
48911;SDS011;34722;52.108;5.044;2022-10-10T09:55:11;13.73;;;8.32;;
48911;SDS011;34722;52.108;5.044;2022-10-10T09:57:46;17.27;;;9.52;;
48911;SDS011;34722;52.108;5.044;2022-10-10T10:00:27;15.65;;;8.60;;
48911;SDS011;34722;52.108;5.044;2022-10-10T10:05:55;14.40;;;9.65;;
48911;SDS011;34722;52.108;5.044;2022-10-10T10:11:31;17.42;;;9.05;;
48911;SDS011;34722;52.108;5.044;2022-10-10T10:17:09;13.00;;;8.77;;
48911;SDS011;34722;52.108;5.044;2022-10-10T10:19:52;14.75;;;8.38;;
48911;SDS011;34722;52.108;5.044;2022-10-10T10:22:37;15.18;;;8.77;;
48911;SDS011;34722;52.108;5.044;2022-10-10T10:37:53;15.48;;;8.75;;
48911;SDS011;34722;52.108;5.044;2022-10-10T10:52:20;15.48;;;8.63;;
48911;SDS011;34722;52.108;5.044;2022-10-10T11:00:32;17.33;;;9.88;;
48911;SDS011;34722;52.108;5.044;2022-10-10T11:03:15;21.55;;;10.10;;
48911;SDS011;34722;52.108;5.044;2022-10-10T11:05:48;18.73;;;9.55;;
48911;SDS011;34722;52.108;5.044;2022-10-10T11:08:44;17.52;;;10.20;;
48911;SDS011;34722;52.108;5.044;2022-10-10T11:14:39;16.17;;;9.98;;
48911;SDS011;34722;52.108;5.044;2022-10-10T11:22:36;16.42;;;9.15;;
48911;SDS011;34722;52.108;5.044;2022-10-10T11:25:18;18.20;;;9.70;;
48911;SDS011;34722;52.108;5.044;2022-10-10T11:28:05;16.20;;;9.48;;
48911;SDS011;34722;52.108;5.044;2022-10-10T11:30:42;16.70;;;9.63;;
48911;SDS011;34722;52.108;5.044;2022-10-10T11:33:17;17.98;;;9.98;;
48911;SDS011;34722;52.108;5.044;2022-10-10T11:36:07;20.02;;;9.52;;
48911;SDS011;34722;52.108;5.044;2022-10-10T11:38:48;17.17;;;9.73;;
48911;SDS011;34722;52.108;5.044;2022-10-10T11:41:33;15.57;;;10.13;;
48911;SDS011;34722;52.108;5.044;2022-10-10T11:44:12;17.63;;;10.15;;
48911;SDS011;34722;52.108;5.044;2022-10-10T11:54:51;19.48;;;10.20;;
48911;SDS011;34722;52.108;5.044;2022-10-10T12:00:08;22.30;;;11.20;;
48911;SDS011;34722;52.108;5.044;2022-10-10T12:02:39;18.17;;;10.75;;
48911;SDS011;34722;52.108;5.044;2022-10-10T12:05:16;14.75;;;8.85;;
48911;SDS011;34722;52.108;5.044;2022-10-10T12:07:48;17.70;;;9.68;;
48911;SDS011;34722;52.108;5.044;2022-10-10T12:20:42;14.40;;;8.48;;
48911;SDS011;34722;52.108;5.044;2022-10-10T13:02:24;13.77;;;4.30;;
48911;SDS011;34722;52.108;5.044;2022-10-10T13:28:13;2.15;;;0.90;;
48911;SDS011;34722;52.108;5.044;2022-10-10T13:31:00;5.13;;;1.17;;
48911;SDS011;34722;52.108;5.044;2022-10-10T13:33:33;2.88;;;1.20;;
48911;SDS011;34722;52.108;5.044;2022-10-10T13:36:26;2.75;;;0.80;;
48911;SDS011;34722;52.108;5.044;2022-10-10T13:39:05;2.28;;;0.85;;
48911;SDS011;34722;52.108;5.044;2022-10-10T13:41:39;0.57;;;0.50;;
48911;SDS011;34722;52.108;5.044;2022-10-10T13:50:48;4.75;;;1.40;;
48911;SDS011;34722;52.108;5.044;2022-10-10T13:58:05;3.13;;;1.17;;
48911;SDS011;34722;52.108;5.044;2022-10-10T14:01:04;5.32;;;1.42;;
48911;SDS011;34722;52.108;5.044;2022-10-10T14:04:04;4.47;;;1.70;;
48911;SDS011;34722;52.108;5.044;2022-10-10T14:06:40;7.38;;;1.30;;
48911;SDS011;34722;52.108;5.044;2022-10-10T14:09:25;11.90;;;2.40;;
48911;SDS011;34722;52.108;5.044;2022-10-10T14:12:02;15.80;;;2.10;;
48911;SDS011;34722;52.108;5.044;2022-10-10T14:14:54;12.18;;;2.08;;
48911;SDS011;34722;52.108;5.044;2022-10-10T14:17:20;12.57;;;2.30;;
48911;SDS011;34722;52.108;5.044;2022-10-10T14:19:46;12.05;;;2.70;;
48911;SDS011;34722;52.108;5.044;2022-10-10T14:22:22;14.32;;;2.55;;
48911;SDS011;34722;52.108;5.044;2022-10-10T14:25:12;17.23;;;2.47;;
48911;SDS011;34722;52.108;5.044;2022-10-10T14:27:47;18.40;;;2.60;;
48911;SDS011;34722;52.108;5.044;2022-10-10T14:30:21;16.35;;;2.53;;
48911;SDS011;34722;52.108;5.044;2022-10-10T14:32:47;13.55;;;2.47;;
48911;SDS011;34722;52.108;5.044;2022-10-10T14:35:22;16.70;;;4.07;;
48911;SDS011;34722;52.108;5.044;2022-10-10T14:37:53;12.98;;;2.33;;
48911;SDS011;34722;52.108;5.044;2022-10-10T14:40:47;16.33;;;2.38;;
48911;SDS011;34722;52.108;5.044;2022-10-10T14:43:16;13.57;;;2.65;;
48911;SDS011;34722;52.108;5.044;2022-10-10T14:45:47;19.83;;;2.63;;
48911;SDS011;34722;52.108;5.044;2022-10-10T14:48:17;13.05;;;2.22;;
48911;SDS011;34722;52.108;5.044;2022-10-10T14:50:47;16.70;;;3.30;;
48911;SDS011;34722;52.108;5.044;2022-10-10T14:53:15;15.65;;;2.15;;
48911;SDS011;34722;52.108;5.044;2022-10-10T14:55:43;13.20;;;2.70;;
48911;SDS011;34722;52.108;5.044;2022-10-10T14:58:31;25.17;;;3.45;;
48911;SDS011;34722;52.108;5.044;2022-10-10T15:00:57;13.15;;;2.00;;
48911;SDS011;34722;52.108;5.044;2022-10-10T15:03:25;19.52;;;2.75;;
48911;SDS011;34722;52.108;5.044;2022-10-10T15:05:51;15.00;;;3.08;;
48911;SDS011;34722;52.108;5.044;2022-10-10T15:08:17;23.45;;;2.60;;
48911;SDS011;34722;52.108;5.044;2022-10-10T15:10:49;16.17;;;2.42;;
48911;SDS011;34722;52.108;5.044;2022-10-10T15:13:24;16.58;;;2.58;;
48911;SDS011;34722;52.108;5.044;2022-10-10T15:15:50;18.30;;;2.90;;
48911;SDS011;34722;52.108;5.044;2022-10-10T15:21:11;24.48;;;2.58;;
48911;SDS011;34722;52.108;5.044;2022-10-10T15:24:00;17.52;;;4.55;;
48911;SDS011;34722;52.108;5.044;2022-10-10T15:26:26;18.08;;;3.33;;
48911;SDS011;34722;52.108;5.044;2022-10-10T15:28:58;18.92;;;2.58;;
48911;SDS011;34722;52.108;5.044;2022-10-10T15:31:27;17.50;;;3.42;;
48911;SDS011;34722;52.108;5.044;2022-10-10T15:34:02;20.02;;;3.10;;
48911;SDS011;34722;52.108;5.044;2022-10-10T15:36:39;24.20;;;2.45;;
48911;SDS011;34722;52.108;5.044;2022-10-10T15:39:07;24.00;;;4.30;;
48911;SDS011;34722;52.108;5.044;2022-10-10T15:41:36;14.85;;;2.15;;
48911;SDS011;34722;52.108;5.044;2022-10-10T15:44:02;10.48;;;1.77;;
48911;SDS011;34722;52.108;5.044;2022-10-10T15:46:28;11.82;;;2.10;;
48911;SDS011;34722;52.108;5.044;2022-10-10T15:49:00;18.15;;;3.08;;
48911;SDS011;34722;52.108;5.044;2022-10-10T15:51:29;14.60;;;2.45;;
48911;SDS011;34722;52.108;5.044;2022-10-10T15:53:55;13.05;;;3.15;;
48911;SDS011;34722;52.108;5.044;2022-10-10T15:56:28;20.98;;;3.20;;
48911;SDS011;34722;52.108;5.044;2022-10-10T16:01:48;15.43;;;2.13;;
48911;SDS011;34722;52.108;5.044;2022-10-10T16:04:23;12.90;;;2.08;;
48911;SDS011;34722;52.108;5.044;2022-10-10T16:07:01;23.73;;;3.00;;
48911;SDS011;34722;52.108;5.044;2022-10-10T16:09:30;10.80;;;2.22;;
48911;SDS011;34722;52.108;5.044;2022-10-10T16:11:57;9.70;;;1.80;;
48911;SDS011;34722;52.108;5.044;2022-10-10T16:14:22;16.27;;;2.33;;
48911;SDS011;34722;52.108;5.044;2022-10-10T16:16:59;9.18;;;1.88;;
48911;SDS011;34722;52.108;5.044;2022-10-10T16:19:33;11.25;;;1.77;;
48911;SDS011;34722;52.108;5.044;2022-10-10T16:21:59;14.13;;;1.73;;
48911;SDS011;34722;52.108;5.044;2022-10-10T16:24:25;17.55;;;2.63;;
48911;SDS011;34722;52.108;5.044;2022-10-10T16:26:54;13.80;;;2.17;;
48911;SDS011;34722;52.108;5.044;2022-10-10T16:29:26;17.33;;;3.15;;
48911;SDS011;34722;52.108;5.044;2022-10-10T17:55:30;14.25;;;4.00;;
48911;SDS011;34722;52.108;5.044;2022-10-10T17:58:26;14.60;;;3.30;;
48911;SDS011;34722;52.108;5.044;2022-10-10T18:00:58;14.60;;;3.25;;
48911;SDS011;34722;52.108;5.044;2022-10-10T18:03:25;20.02;;;4.13;;
48911;SDS011;34722;52.108;5.044;2022-10-10T18:05:51;21.00;;;4.22;;
48911;SDS011;34722;52.108;5.044;2022-10-10T18:08:17;11.38;;;3.25;;
48911;SDS011;34722;52.108;5.044;2022-10-10T18:10:42;14.50;;;3.63;;
48911;SDS011;34722;52.108;5.044;2022-10-10T18:13:08;22.42;;;4.28;;
48911;SDS011;34722;52.108;5.044;2022-10-10T18:15:39;25.90;;;4.75;;
48911;SDS011;34722;52.108;5.044;2022-10-10T18:18:08;18.65;;;5.13;;
48911;SDS011;34722;52.108;5.044;2022-10-10T18:20:35;15.93;;;5.18;;
48911;SDS011;34722;52.108;5.044;2022-10-10T18:23:02;13.05;;;4.07;;
48911;SDS011;34722;52.108;5.044;2022-10-10T18:25:31;15.20;;;4.25;;
48911;SDS011;34722;52.108;5.044;2022-10-10T18:27:57;23.95;;;5.15;;
48911;SDS011;34722;52.108;5.044;2022-10-10T18:30:27;25.13;;;4.88;;
48911;SDS011;34722;52.108;5.044;2022-10-10T18:32:54;14.27;;;3.78;;
48911;SDS011;34722;52.108;5.044;2022-10-10T18:35:20;16.50;;;4.78;;
48911;SDS011;34722;52.108;5.044;2022-10-10T18:37:45;19.48;;;4.18;;
48911;SDS011;34722;52.108;5.044;2022-10-10T19:24:13;24.38;;;6.18;;
48911;SDS011;34722;52.108;5.044;2022-10-10T19:26:44;15.70;;;5.03;;
48911;SDS011;34722;52.108;5.044;2022-10-10T19:34:23;22.30;;;7.05;;
48911;SDS011;34722;52.108;5.044;2022-10-10T19:37:07;19.38;;;7.28;;
48911;SDS011;34722;52.108;5.044;2022-10-10T19:39:56;33.67;;;7.13;;
48911;SDS011;34722;52.108;5.044;2022-10-10T19:42:26;16.77;;;6.45;;
48911;SDS011;34722;52.108;5.044;2022-10-10T19:44:58;21.30;;;6.55;;
48911;SDS011;34722;52.108;5.044;2022-10-10T19:47:24;15.80;;;6.53;;
48911;SDS011;34722;52.108;5.044;2022-10-10T19:49:51;23.80;;;6.50;;
48911;SDS011;34722;52.108;5.044;2022-10-10T19:52:17;22.25;;;6.32;;
48911;SDS011;34722;52.108;5.044;2022-10-10T19:54:43;19.45;;;6.78;;
48911;SDS011;34722;52.108;5.044;2022-10-10T19:57:11;20.35;;;5.93;;
48911;SDS011;34722;52.108;5.044;2022-10-10T19:59:39;31.58;;;7.45;;
48911;SDS011;34722;52.108;5.044;2022-10-10T20:02:11;28.77;;;7.35;;
48911;SDS011;34722;52.108;5.044;2022-10-10T20:04:37;21.98;;;7.88;;
48911;SDS011;34722;52.108;5.044;2022-10-10T20:07:07;30.17;;;7.80;;
48911;SDS011;34722;52.108;5.044;2022-10-10T20:09:36;23.58;;;8.95;;
48911;SDS011;34722;52.108;5.044;2022-10-10T20:12:01;21.73;;;8.32;;
48911;SDS011;34722;52.108;5.044;2022-10-10T20:14:27;27.83;;;9.00;;
48911;SDS011;34722;52.108;5.044;2022-10-10T20:16:54;32.20;;;8.00;;
48911;SDS011;34722;52.108;5.044;2022-10-10T20:19:21;28.33;;;8.98;;
48911;SDS011;34722;52.108;5.044;2022-10-10T20:21:47;23.88;;;7.75;;
48911;SDS011;34722;52.108;5.044;2022-10-10T20:24:15;28.70;;;8.80;;
48911;SDS011;34722;52.108;5.044;2022-10-10T20:26:41;27.65;;;8.80;;
48911;SDS011;34722;52.108;5.044;2022-10-10T20:29:07;28.33;;;8.55;;
48911;SDS011;34722;52.108;5.044;2022-10-10T20:31:34;22.95;;;8.85;;
48911;SDS011;34722;52.108;5.044;2022-10-10T20:34:01;26.83;;;8.93;;
48911;SDS011;34722;52.108;5.044;2022-10-10T20:36:29;20.90;;;8.50;;
48911;SDS011;34722;52.108;5.044;2022-10-10T20:39:05;23.70;;;8.38;;
48911;SDS011;34722;52.108;5.044;2022-10-10T20:41:33;26.77;;;9.27;;
48911;SDS011;34722;52.108;5.044;2022-10-10T20:44:00;30.63;;;10.10;;
48911;SDS011;34722;52.108;5.044;2022-10-10T20:46:35;29.77;;;8.95;;
48911;SDS011;34722;52.108;5.044;2022-10-10T20:49:11;23.30;;;8.25;;
48911;SDS011;34722;52.108;5.044;2022-10-10T20:51:46;18.92;;;8.10;;
48911;SDS011;34722;52.108;5.044;2022-10-10T20:54:19;25.55;;;7.55;;
48911;SDS011;34722;52.108;5.044;2022-10-10T20:56:46;28.80;;;7.45;;
48911;SDS011;34722;52.108;5.044;2022-10-10T20:59:15;26.15;;;8.82;;
48911;SDS011;34722;52.108;5.044;2022-10-10T21:01:45;26.13;;;7.88;;
48911;SDS011;34722;52.108;5.044;2022-10-10T21:04:11;23.95;;;7.43;;
48911;SDS011;34722;52.108;5.044;2022-10-10T21:06:40;23.92;;;7.50;;
48911;SDS011;34722;52.108;5.044;2022-10-10T21:09:10;22.25;;;7.25;;
48911;SDS011;34722;52.108;5.044;2022-10-10T21:11:38;19.15;;;7.07;;
48911;SDS011;34722;52.108;5.044;2022-10-10T21:14:03;21.58;;;7.00;;
48911;SDS011;34722;52.108;5.044;2022-10-10T21:16:34;25.15;;;7.60;;
48911;SDS011;34722;52.108;5.044;2022-10-10T21:19:02;18.92;;;6.93;;
48911;SDS011;34722;52.108;5.044;2022-10-10T21:21:29;26.85;;;8.57;;
48911;SDS011;34722;52.108;5.044;2022-10-10T21:24:00;29.63;;;6.88;;
48911;SDS011;34722;52.108;5.044;2022-10-10T21:26:28;17.50;;;6.15;;
48911;SDS011;34722;52.108;5.044;2022-10-10T21:28:55;21.60;;;7.47;;
48911;SDS011;34722;52.108;5.044;2022-10-10T21:31:26;22.13;;;8.07;;
48911;SDS011;34722;52.108;5.044;2022-10-10T21:33:54;30.97;;;8.00;;
48911;SDS011;34722;52.108;5.044;2022-10-10T21:36:24;26.20;;;7.45;;
48911;SDS011;34722;52.108;5.044;2022-10-10T21:38:50;14.30;;;6.28;;
48911;SDS011;34722;52.108;5.044;2022-10-10T21:41:26;23.95;;;6.57;;
48911;SDS011;34722;52.108;5.044;2022-10-10T21:43:55;27.25;;;7.05;;
48911;SDS011;34722;52.108;5.044;2022-10-10T21:46:24;32.95;;;8.30;;
48911;SDS011;34722;52.108;5.044;2022-10-10T21:48:54;27.27;;;7.13;;
48911;SDS011;34722;52.108;5.044;2022-10-10T21:51:22;25.25;;;6.47;;
48911;SDS011;34722;52.108;5.044;2022-10-10T21:53:49;25.15;;;6.68;;
48911;SDS011;34722;52.108;5.044;2022-10-10T21:56:15;29.33;;;7.28;;
48911;SDS011;34722;52.108;5.044;2022-10-10T21:58:41;20.25;;;7.43;;
48911;SDS011;34722;52.108;5.044;2022-10-10T22:01:18;21.48;;;6.63;;
48911;SDS011;34722;52.108;5.044;2022-10-10T22:03:47;16.92;;;6.45;;
48911;SDS011;34722;52.108;5.044;2022-10-10T22:06:20;18.30;;;6.82;;
48911;SDS011;34722;52.108;5.044;2022-10-10T22:08:47;20.30;;;6.20;;
48911;SDS011;34722;52.108;5.044;2022-10-10T22:11:16;21.55;;;6.28;;
48911;SDS011;34722;52.108;5.044;2022-10-10T22:13:43;23.48;;;6.70;;
48911;SDS011;34722;52.108;5.044;2022-10-10T22:16:09;17.83;;;6.60;;
48911;SDS011;34722;52.108;5.044;2022-10-10T22:18:36;22.15;;;7.10;;
48911;SDS011;34722;52.108;5.044;2022-10-10T22:21:03;27.20;;;7.53;;
48911;SDS011;34722;52.108;5.044;2022-10-10T22:23:30;22.23;;;6.78;;